»·PEaware :: WAT1418 KLAS-KELP

WAT1418 :: KLAS-KELP

FLIGHT INFORMATION

Flight Status: Arrived
Operator:
Walker Air Transport
More flights by this operator :: More flights under this callsign
Pilot: Robin K. (36346)
Aircraft: BOEING 737-600
(B736)
More flights by this aircraft type
Origin: KLAS Harry Reid Intl
United States
Destination: KELP El Paso Intl
United States
More flights between these airports :: More routes between these airports
Route: NIITZ3 SSKEE INW J86 GREBE MOLLY5
File this flight plan on PilotEdge
Remarks: RWY reposition approved by Ops, unable vis approaches.
Altitude:
(Current/Filed)
41,000ft
Speed:
(Current/Filed)
438kts
Departed: 26-Oct-23 12:03 PM
Arrived: 26-Oct-23 01:29 PM
Distance/Time
Traveled:
506nm/1:26
Distance/Time
To Go:
Arrived

Flight Plot

Page will automatically refresh every two minutes.

Flight plan parsing failed; only flown route is shown


Map Options




Map Legend


Flown Route
Filed Route
Departure Airport
Arrival Airport
Navaid (VOR, NDB)
Fix

Horizontal Profiles

Position Reports

Time Latitude Longitude Heading Altitude Ground
Speed
26-Oct-23 11:36 36.084877 -115.154459 8 2124ft 0kts
26-Oct-23 11:37 36.084877 -115.154459 8 2124ft 0kts
26-Oct-23 11:38 36.084877 -115.154459 8 2124ft 0kts
26-Oct-23 11:39 36.084877 -115.154459 8 2124ft 0kts
26-Oct-23 11:40 36.084877 -115.154459 8 2124ft 0kts
26-Oct-23 11:41 36.084877 -115.154459 8 2124ft 0kts
26-Oct-23 11:42 36.084877 -115.154459 8 2124ft 0kts
26-Oct-23 11:43 36.084877 -115.154459 8 2124ft 0kts
26-Oct-23 11:44 36.084877 -115.154459 8 2124ft 0kts
26-Oct-23 11:45 36.084877 -115.154459 8 2124ft 0kts
26-Oct-23 11:46 36.084877 -115.154459 8 2124ft 0kts
26-Oct-23 11:47 36.084877 -115.154459 8 2124ft 0kts
26-Oct-23 11:48 36.084877 -115.154459 8 2124ft 0kts
26-Oct-23 11:49 36.084877 -115.154459 8 2124ft 0kts
26-Oct-23 11:50 36.084877 -115.154459 8 2124ft 0kts
26-Oct-23 11:51 36.084877 -115.154459 8 2124ft 0kts
26-Oct-23 11:52 36.084877 -115.154459 8 2124ft 0kts
26-Oct-23 11:53 36.084877 -115.154459 8 2124ft 0kts
26-Oct-23 11:54 36.084877 -115.154459 8 2124ft 0kts
26-Oct-23 11:55 36.084877 -115.154459 8 2124ft 0kts
26-Oct-23 11:56 36.084877 -115.154459 8 2124ft 0kts
26-Oct-23 11:57 36.084877 -115.154459 8 2124ft 0kts
26-Oct-23 11:58 36.084877 -115.154459 8 2124ft 0kts
26-Oct-23 11:59 36.084877 -115.154459 8 2124ft 0kts
26-Oct-23 12:00 36.076431 -115.121368 269 2028ft 0kts
26-Oct-23 12:01 36.076431 -115.121368 269 2028ft 0kts
26-Oct-23 12:02 36.076360 -115.152456 267 3026ft 164kts
26-Oct-23 12:03 36.075664 -115.213014 263 5340ft 233kts
26-Oct-23 12:04 36.033302 -115.276052 200 7938ft 282kts
26-Oct-23 12:05 35.961133 -115.260747 138 9298ft 291kts
26-Oct-23 12:06 35.901585 -115.184438 120 12815ft 333kts
26-Oct-23 12:07 35.866758 -115.075467 87 16475ft 362kts
26-Oct-23 12:08 35.874617 -114.946792 85 18988ft 385kts
26-Oct-23 12:09 35.882002 -114.815160 86 19011ft 385kts
26-Oct-23 12:10 35.889067 -114.681300 86 20515ft 396kts
26-Oct-23 12:11 35.896291 -114.541785 87 23715ft 422kts
26-Oct-23 12:12 35.897081 -114.394597 92 26579ft 438kts
26-Oct-23 12:13 35.895473 -114.240811 92 29241ft 457kts
26-Oct-23 12:14 35.894314 -114.081034 92 31524ft 472kts
26-Oct-23 12:15 35.892914 -113.916955 92 33404ft 485kts
26-Oct-23 12:16 35.891248 -113.749245 93 35119ft 489kts
26-Oct-23 12:17 35.889203 -113.581045 93 36739ft 491kts
26-Oct-23 12:18 35.873886 -113.415380 106 38315ft 484kts
26-Oct-23 12:19 35.848329 -113.252480 105 39636ft 486kts
26-Oct-23 12:20 35.824363 -113.087940 105 40742ft 487kts
26-Oct-23 12:21 35.799963 -112.921813 105 40964ft 492kts
26-Oct-23 12:22 35.775687 -112.758138 105 40965ft 484kts
26-Oct-23 12:23 35.751310 -112.595397 105 40970ft 484kts
26-Oct-23 12:24 35.726755 -112.432490 106 40996ft 485kts
26-Oct-23 12:25 35.701836 -112.268713 106 41048ft 486kts
26-Oct-23 12:26 35.676767 -112.105475 106 41067ft 487kts
26-Oct-23 12:27 35.651364 -111.941583 106 41043ft 488kts
26-Oct-23 12:28 35.613756 -111.785317 132 41016ft 461kts
26-Oct-23 12:29 35.540741 -111.655466 132 40963ft 462kts
26-Oct-23 12:30 35.468506 -111.524740 132 40962ft 464kts
26-Oct-23 12:31 35.396088 -111.393558 132 40963ft 465kts
26-Oct-23 12:32 35.323254 -111.262217 132 40939ft 466kts
26-Oct-23 12:33 35.250341 -111.131204 132 40938ft 465kts
26-Oct-23 12:34 35.177460 -111.000745 132 40979ft 464kts
26-Oct-23 12:35 35.104620 -110.870822 133 41050ft 463kts
26-Oct-23 12:36 35.029283 -110.744512 138 41085ft 456kts
26-Oct-23 12:37 34.947977 -110.626147 138 41068ft 455kts
26-Oct-23 12:38 34.867404 -110.507203 138 41004ft 455kts
26-Oct-23 12:39 34.786705 -110.388862 138 40938ft 454kts
26-Oct-23 12:40 34.705923 -110.270753 138 40990ft 453kts
26-Oct-23 12:41 34.625488 -110.153510 138 41081ft 452kts
26-Oct-23 12:42 34.544920 -110.036474 138 41128ft 452kts
26-Oct-23 12:43 34.464074 -109.919418 138 41089ft 452kts
26-Oct-23 12:44 34.383388 -109.802969 138 41075ft 452kts
26-Oct-23 12:45 34.302364 -109.686390 138 41032ft 452kts
26-Oct-23 12:46 34.222963 -109.568173 135 41044ft 456kts
26-Oct-23 12:47 34.146015 -109.446462 138 41142ft 451kts
26-Oct-23 12:48 34.064291 -109.332349 139 41161ft 449kts
26-Oct-23 12:49 33.982483 -109.218166 139 41086ft 450kts
26-Oct-23 12:50 33.900993 -109.104149 139 40994ft 450kts
26-Oct-23 12:51 33.819585 -108.990568 139 40931ft 448kts
26-Oct-23 12:52 33.737872 -108.877066 139 40946ft 451kts
26-Oct-23 12:53 33.655665 -108.763151 139 40968ft 450kts
26-Oct-23 12:54 33.573537 -108.649697 140 40962ft 451kts
26-Oct-23 12:55 33.491004 -108.536081 140 40958ft 452kts
26-Oct-23 12:56 33.408238 -108.422469 140 40961ft 453kts
26-Oct-23 12:57 33.325372 -108.309108 140 40961ft 453kts
26-Oct-23 12:58 33.242318 -108.195764 140 40972ft 452kts
26-Oct-23 12:59 33.154885 -108.091487 148 40971ft 440kts
26-Oct-23 13:00 33.063591 -107.993478 147 40970ft 443kts
26-Oct-23 13:01 32.972579 -107.893843 147 40964ft 445kts
26-Oct-23 13:02 32.880645 -107.793757 147 39649ft 449kts
26-Oct-23 13:03 32.788286 -107.693813 146 36838ft 447kts
26-Oct-23 13:04 32.696104 -107.594359 143 33733ft 453kts
26-Oct-23 13:05 32.602184 -107.493190 143 30415ft 451kts
26-Oct-23 13:06 32.510898 -107.395181 143 27638ft 433kts
26-Oct-23 13:07 32.423181 -107.301352 143 25154ft 418kts
26-Oct-23 13:08 32.337458 -107.209917 143 22628ft 409kts
26-Oct-23 13:09 32.254667 -107.121777 142 20285ft 393kts
26-Oct-23 13:10 32.174479 -107.036651 142 17929ft 383kts
26-Oct-23 13:11 32.111270 -106.940133 106 15535ft 381kts
26-Oct-23 13:12 32.086177 -106.820102 105 13170ft 371kts
26-Oct-23 13:13 32.058767 -106.705398 106 10967ft 357kts
26-Oct-23 13:14 32.032956 -106.600484 107 9782ft 305kts
26-Oct-23 13:15 32.010367 -106.508827 107 9059ft 274kts
26-Oct-23 13:16 32.014853 -106.430149 58 8958ft 232kts
26-Oct-23 13:17 32.049848 -106.360681 57 7632ft 243kts
26-Oct-23 13:18 32.081977 -106.297684 57 6979ft 214kts
26-Oct-23 13:19 32.086700 -106.233017 127 6934ft 214kts
26-Oct-23 13:20 32.053257 -106.175364 127 6912ft 210kts
26-Oct-23 13:21 32.011826 -106.137019 195 6937ft 192kts
26-Oct-23 13:22 31.967647 -106.169038 229 6954ft 193kts
26-Oct-23 13:23 31.932614 -106.217166 231 7002ft 191kts
26-Oct-23 13:24 31.900640 -106.261678 231 6328ft 161kts
26-Oct-23 13:25 31.872365 -106.301079 231 5541ft 130kts
26-Oct-23 13:26 31.849839 -106.332482 232 4932ft 124kts
26-Oct-23 13:27 31.826766 -106.364648 230 4143ft 123kts
26-Oct-23 13:28 31.815099 -106.380938 229 3946ft 0kts

Navigation Log

Ident Type
Flight plan parsing failed, navigation log unavailable